Time;durP1;ratioP1;P1;durP2;ratioP2;P2;SDS_P1;SDS_P2;PMS_P1;PMS_P2;Temp;Humidity;BMP_temperature;BMP_pressure;BME280_temperature;BME280_humidity;BME280_pressure;Samples;Min_cycle;Max_cycle;Signal;HPM_P1;HPM_P2
2022/06/23 00:02:29;;;;;;;;;19.67;18.00;;;;;22.15;62.60;100386.13;5074278;27;46898;-65
2022/06/23 00:04:58;;;;;;;;;21.00;21.00;;;;;22.15;63.06;100383.41;5074098;27;45260;-61
2022/06/23 00:07:27;;;;;;;;;25.67;23.33;;;;;22.13;62.90;100376.44;5076539;27;45463;-70
2022/06/23 00:10:12;;;;;;;;;20.00;19.00;;;;;22.17;62.97;100400.34;5077182;27;45228;-68
2022/06/23 00:12:40;;;;;;;;;20.00;19.00;;;;;22.19;64.14;100401.03;5104772;27;46651;-62
2022/06/23 00:15:14;;;;;;;;;30.33;26.00;;;;;22.12;66.88;100391.84;5074753;27;45623;-72
2022/06/23 00:17:55;;;;;;;;;28.00;26.00;;;;;21.89;67.65;100396.16;5075441;28;45283;-71
2022/06/23 00:20:30;;;;;;;;;23.67;23.00;;;;;21.78;67.75;100384.63;5075676;27;45534;-64
2022/06/23 00:23:03;;;;;;;;;26.67;24.00;;;;;21.76;68.88;100392.06;5075797;27;45539;-60
2022/06/23 00:25:41;;;;;;;;;28.67;27.33;;;;;21.67;70.48;100387.63;5076201;27;45450;-71
2022/06/23 00:28:19;;;;;;;;;25.00;23.00;;;;;21.51;69.16;100376.72;5074621;27;45234;-70
2022/06/23 00:30:49;;;;;;;;;27.00;24.67;;;;;21.45;68.71;100375.50;5075762;27;45490;-72
2022/06/23 00:33:21;;;;;;;;;25.00;25.00;;;;;21.49;69.68;100378.75;5074669;27;46323;-67
2022/06/23 00:35:50;;;;;;;;;27.67;25.67;;;;;21.46;70.76;100376.34;5074068;27;45522;-68
2022/06/23 00:38:36;;;;;;;;;24.00;24.00;;;;;21.35;71.09;100371.19;5071787;27;45385;-68
2022/06/23 00:41:02;;;;;;;;;23.67;22.67;;;;;21.29;70.79;100375.41;5071239;27;45912;-71
2022/06/23 00:43:29;;;;;;;;;27.00;24.67;;;;;21.25;71.39;100381.28;5073432;27;47261;-68
2022/06/23 00:46:12;;;;;;;;;29.67;28.33;;;;;21.14;71.98;100372.41;5073946;27;45658;-70
2022/06/23 00:48:43;;;;;;;;;34.67;29.33;;;;;21.10;72.22;100370.19;5074287;27;45310;-70
2022/06/23 00:51:27;;;;;;;;;32.33;30.00;;;;;21.08;72.44;100359.50;5074606;27;45381;-67
2022/06/23 00:54:05;;;;;;;;;28.67;26.67;;;;;21.02;71.86;100362.88;5056887;27;46279;-70
2022/06/23 00:56:50;;;;;;;;;28.67;28.67;;;;;21.04;72.17;100365.41;5074256;28;45452;-72
2022/06/23 00:59:49;;;;;;;;;28.33;27.33;;;;;21.04;72.11;100365.41;5106812;27;45521;-65
2022/06/23 01:02:23;;;;;;;;;33.33;30.67;;;;;21.02;72.20;100353.91;5072977;27;45476;-65
2022/06/23 01:05:01;;;;;;;;;30.67;29.00;;;;;21.04;71.97;100362.72;5088592;27;46278;-62
2022/06/23 01:07:46;;;;;;;;;27.33;24.33;;;;;21.03;71.87;100359.16;5078351;27;45459;-64
2022/06/23 01:10:24;;;;;;;;;30.00;30.00;;;;;20.95;72.84;100356.38;5069494;27;45719;-65
2022/06/23 01:12:55;;;;;;;;;34.33;31.00;;;;;20.87;72.97;100357.19;5072799;28;45799;-67
2022/06/23 01:15:35;;;;;;;;;32.67;29.00;;;;;20.81;72.38;100351.56;5074641;27;46705;-62
2022/06/23 01:18:28;;;;;;;;;27.67;24.33;;;;;20.76;72.84;100354.75;5073846;27;46935;-61
2022/06/23 01:21:14;;;;;;;;;31.67;29.67;;;;;20.73;73.02;100356.94;5069934;28;45497;-64
2022/06/23 01:24:07;;;;;;;;;28.67;27.67;;;;;20.76;72.16;100354.75;5074633;27;45575;-61
2022/06/23 01:26:59;;;;;;;;;28.67;28.67;;;;;20.78;72.32;100352.72;5072472;28;45524;-65
2022/06/23 01:29:31;;;;;;;;;31.33;29.67;;;;;20.80;71.93;100355.28;5074038;28;45472;-62
2022/06/23 01:32:08;;;;;;;;;28.67;27.33;;;;;20.77;71.92;100350.19;5073304;27;45425;-62
2022/06/23 01:34:45;;;;;;;;;32.33;29.33;;;;;20.77;72.03;100345.63;5072402;27;45420;-72
2022/06/23 01:37:27;;;;;;;;;28.67;27.67;;;;;20.76;72.17;100346.63;5069029;28;46108;-71
2022/06/23 01:40:03;;;;;;;;;29.00;29.00;;;;;20.79;71.82;100348.16;5074113;27;46961;-68
2022/06/23 01:42:46;;;;;;;;;30.67;30.67;;;;;20.78;71.81;100351.88;5074355;27;45401;-63
2022/06/23 01:45:36;;;;;;;;;32.67;28.67;;;;;20.79;71.44;100337.34;5073811;27;45465;-64
2022/06/23 01:48:13;;;;;;;;;27.67;25.00;;;;;20.74;71.85;100340.53;5072641;28;45490;-66
2022/06/23 01:50:49;;;;;;;;;33.00;29.00;;;;;20.67;73.14;100338.63;5074065;27;45460;-67
2022/06/23 01:53:15;;;;;;;;;26.00;23.33;;;;;20.57;72.75;100334.19;5072498;28;45444;-64
2022/06/23 01:56:14;;;;;;;;;30.67;28.67;;;;;20.54;72.67;100344.41;5073907;27;45578;-68
2022/06/23 01:59:02;;;;;;;;;31.00;28.00;;;;;20.52;72.88;100339.19;5053451;28;45524;-65
2022/06/23 02:01:51;;;;;;;;;27.00;25.33;;;;;20.54;72.41;100333.63;5067622;28;45489;-68
2022/06/23 02:04:43;;;;;;;;;26.00;26.00;;;;;20.57;72.68;100336.00;5072964;28;45525;-67
2022/06/23 02:07:22;;;;;;;;;29.33;28.67;;;;;20.58;72.48;100335.88;5043697;27;45458;-64
2022/06/23 02:09:51;;;;;;;;;26.33;25.67;;;;;20.59;73.50;100342.97;5067317;27;46719;-61
2022/06/23 02:12:27;;;;;;;;;34.67;30.00;;;;;20.58;72.74;100333.16;5073302;28;45353;-67
2022/06/23 02:14:55;;;;;;;;;36.33;33.00;;;;;20.63;72.85;100335.38;5073629;28;45453;-65
2022/06/23 02:17:50;;;;;;;;;30.67;29.33;;;;;20.63;72.77;100329.97;5073563;28;45512;-66
2022/06/23 02:20:26;;;;;;;;;30.67;30.00;;;;;20.67;73.02;100333.22;5029932;27;1256147;-70
2022/06/23 02:23:04;;;;;;;;;30.33;29.67;;;;;20.69;73.37;100331.19;5074924;27;45291;-68
2022/06/23 02:25:36;;;;;;;;;27.00;27.00;;;;;20.67;73.56;100327.81;5075711;27;45279;-61
2022/06/23 02:28:24;;;;;;;;;32.00;28.67;;;;;20.70;72.99;100335.59;5073016;27;45517;-67
2022/06/23 02:31:02;;;;;;;;;28.67;27.33;;;;;20.73;73.11;100330.75;5080721;27;45325;-70
2022/06/23 02:33:34;;;;;;;;;29.33;28.00;;;;;20.72;73.49;100329.06;5074786;28;45442;-72
2022/06/23 02:36:21;;;;;;;;;29.67;29.67;;;;;20.72;73.89;100325.50;5075408;27;45527;-72
2022/06/23 02:39:00;;;;;;;;;37.00;31.33;;;;;20.75;73.28;100319.78;5087080;27;46916;-69
2022/06/23 02:41:41;;;;;;;;;32.67;30.33;;;;;20.77;73.51;100331.28;5067037;28;46150;-66
2022/06/23 02:44:18;;;;;;;;;38.00;32.67;;;;;20.77;74.01;100317.75;5073492;28;45504;-66
2022/06/23 02:47:04;;;;;;;;;31.67;30.00;;;;;20.77;73.79;100317.75;5073167;27;45490;-69
2022/06/23 02:49:44;;;;;;;;;31.67;31.00;;;;;20.79;73.71;100324.69;5072761;27;45568;-69
2022/06/23 02:52:25;;;;;;;;;34.33;32.67;;;;;20.79;73.75;100324.69;5072362;27;45740;-66
2022/06/23 02:54:53;;;;;;;;;33.00;31.00;;;;;20.82;74.34;100323.53;5055245;28;45474;-68
2022/06/23 02:57:34;;;;;;;;;29.33;27.33;;;;;20.83;74.28;100322.50;5074417;27;45184;-63
2022/06/23 03:00:15;;;;;;;;;33.67;31.00;;;;;20.82;74.49;100320.81;5073443;27;45581;-62
2022/06/23 03:03:13;;;;;;;;;33.00;28.67;;;;;20.84;74.79;100322.38;5059706;28;45335;-65
2022/06/23 03:05:57;;;;;;;;;29.33;28.67;;;;;20.88;74.63;100321.06;5074551;27;45387;-61
2022/06/23 03:08:55;;;;;;;;;28.00;26.33;;;;;20.92;74.96;100326.97;5106760;27;45355;-61
2022/06/23 03:11:52;;;;;;;;;23.67;21.67;;;;;20.96;74.58;100333.75;5074117;28;45430;-61
2022/06/23 03:14:36;;;;;;;;;28.00;25.00;;;;;21.02;74.63;100327.72;5074439;27;46373;-62
2022/06/23 03:17:10;;;;;;;;;25.67;23.00;;;;;21.05;74.27;100324.69;5072563;28;45424;-65
2022/06/23 03:19:42;;;;;;;;;20.33;19.00;;;;;21.05;74.38;100323.84;5076118;27;45417;-68
2022/06/23 03:22:20;;;;;;;;;14.00;12.33;;;;;21.06;74.37;100342.63;5076927;27;45525;-67
2022/06/23 03:25:21;;;;;;;;;9.00;9.00;;;;;21.06;74.07;100341.75;5079167;27;45397;-67
2022/06/23 03:27:56;;;;;;;;;10.00;9.00;;;;;21.09;73.56;100339.59;5066532;27;45610;-61
2022/06/23 03:30:38;;;;;;;;;2.67;1.00;;;;;21.04;73.26;100339.22;5077180;27;45303;-64
2022/06/23 03:33:30;;;;;;;;;5.33;5.33;;;;;20.98;73.97;100350.69;5074543;27;45351;-65
2022/06/23 03:36:04;;;;;;;;;7.00;5.67;;;;;20.92;72.95;100349.44;5073514;27;45362;-64
2022/06/23 03:41:36;;;;;;;;;5.75;4.00;;;;;20.80;73.15;100356.13;5076094;27;45616;-69
2022/06/23 03:44:27;;;;;;;;;4.00;2.67;;;;;20.78;72.58;100354.59;5075176;27;45360;-72
2022/06/23 03:46:56;;;;;;;;;4.33;4.33;;;;;20.75;72.31;100360.31;5075366;27;45811;-70
2022/06/23 03:49:44;;;;;;;;;4.33;4.33;;;;;20.73;72.57;100365.88;5074273;27;45398;-69
2022/06/23 03:52:53;;;;;;;;;4.00;4.00;;;;;20.68;72.54;100370.88;5075843;27;45373;-65
2022/06/23 03:55:23;;;;;;;;;6.00;4.67;;;;;20.71;72.19;100375.16;5042511;28;45732;-61
2022/06/23 03:57:58;;;;;;;;;3.67;3.67;;;;;20.71;72.12;100377.84;5076402;27;46212;-65
2022/06/23 04:00:37;;;;;;;;;5.67;4.00;;;;;20.73;72.26;100381.25;5074064;27;45603;-63
2022/06/23 04:03:24;;;;;;;;;3.67;3.67;;;;;20.70;71.85;100376.97;5075281;27;45541;-65
2022/06/23 04:05:55;;;;;;;;;6.25;5.00;;;;;20.72;71.40;100390.34;5074752;27;45436;-67
2022/06/23 04:08:33;;;;;;;;;4.33;4.33;;;;;20.67;72.22;100392.66;5076638;27;45381;-62
2022/06/23 04:11:43;;;;;;;;;6.67;3.67;;;;;20.65;71.68;100389.28;5061596;27;46186;-62
2022/06/23 04:13:55;;;;;;;;;4.67;4.00;;;;;20.63;71.49;100391.28;5068722;27;45447;-65
2022/06/23 04:16:24;;;;;;;;;6.00;5.33;;;;;20.61;71.70;100400.41;5069160;27;45396;-64
2022/06/23 04:18:50;;;;;;;;;5.33;5.00;;;;;20.63;71.20;100397.53;5075779;27;45457;-60
2022/06/23 04:21:21;;;;;;;;;5.00;5.00;;;;;20.61;71.30;100405.81;5076340;27;45605;-69
2022/06/23 04:23:52;;;;;;;;;4.67;4.67;;;;;20.57;71.08;100403.53;5076814;27;45427;-63
2022/06/23 04:26:22;;;;;;;;;6.00;4.00;;;;;20.50;71.20;100403.31;5076365;27;45583;-67
2022/06/23 04:28:53;;;;;;;;;1.50;1.50;;;;;20.49;71.26;100401.63;5075541;27;45599;-65
2022/06/23 04:31:26;;;;;;;;;3.00;3.00;;;;;20.47;71.32;100413.59;5075749;27;45408;-66
2022/06/23 04:33:53;;;;;;;;;5.00;4.00;;;;;20.45;72.31;100413.75;5074555;27;45773;-63
2022/06/23 04:36:30;;;;;;;;;3.67;2.67;;;;;20.37;71.46;100407.38;5075581;27;45650;-63
2022/06/23 04:39:02;;;;;;;;;4.33;4.00;;;;;20.41;71.86;100416.88;5075381;27;45397;-67
2022/06/23 04:41:35;;;;;;;;;4.00;4.00;;;;;20.45;71.69;100418.31;5073351;27;45400;-63
2022/06/23 04:44:06;;;;;;;;;4.33;4.33;;;;;20.46;71.98;100420.00;5075749;27;45325;-66
2022/06/23 04:46:40;;;;;;;;;6.33;5.00;;;;;20.44;71.52;100414.72;5072920;27;46057;-60
2022/06/23 04:49:43;;;;;;;;;3.33;3.33;;;;;20.39;71.88;100417.03;5073084;28;45655;-60
2022/06/23 04:52:14;;;;;;;;;4.33;3.00;;;;;20.34;72.42;100419.34;5039585;28;45594;-63
2022/06/23 04:55:16;;;;;;;;;3.33;3.00;;;;;20.34;72.03;100419.34;5053859;28;45490;-67
2022/06/23 04:57:49;;;;;;;;;6.00;3.33;;;;;20.35;72.29;100415.66;5056832;27;45633;-62
2022/06/23 05:00:22;;;;;;;;;8.00;4.00;;;;;20.36;72.04;100422.75;5074231;27;46095;-63
2022/06/23 05:02:54;;;;;;;;;6.00;6.00;;;;;20.37;72.04;100415.50;5062688;27;45401;-67
2022/06/23 05:05:27;;;;;;;;;7.00;5.00;;;;;20.39;72.34;100406.22;5077799;27;45521;-64
2022/06/23 05:08:24;;;;;;;;;5.33;5.33;;;;;20.43;72.13;100418.44;5079320;27;45298;-64
2022/06/23 05:11:14;;;;;;;;;4.00;4.00;;;;;20.42;72.23;100415.91;5083582;27;45365;-66
2022/06/23 05:13:47;;;;;;;;;9.67;5.67;;;;;20.37;71.87;100415.50;5071166;27;45467;-72
2022/06/23 05:16:20;;;;;;;;;4.67;4.00;;;;;20.38;72.27;100426.13;5074740;27;45648;-69
2022/06/23 05:18:50;;;;;;;;;5.33;4.00;;;;;20.36;71.50;100422.75;5074190;27;45512;-67
2022/06/23 05:21:18;;;;;;;;;6.33;5.00;;;;;20.32;72.31;100426.75;5076776;27;46181;-69
2022/06/23 05:23:54;;;;;;;;;6.33;4.00;;;;;20.35;72.39;100425.59;5071947;27;45518;-71
2022/06/23 05:26:25;;;;;;;;;5.00;5.00;;;;;20.39;71.87;100427.84;5074895;27;45505;-67
2022/06/23 05:29:04;;;;;;;;;3.67;3.33;;;;;20.43;72.41;100421.13;5078479;27;45627;-68
2022/06/23 05:31:35;;;;;;;;;6.00;5.00;;;;;20.43;71.95;100434.66;5072813;27;46579;-71
2022/06/23 05:34:12;;;;;;;;;8.00;5.00;;;;;20.39;71.58;100432.38;5074982;27;45419;-68
2022/06/23 05:36:59;;;;;;;;;6.67;5.00;;;;;20.43;71.33;100440.06;5075007;27;45668;-69
2022/06/23 05:39:36;;;;;;;;;4.00;4.00;;;;;20.49;71.03;100438.59;5076769;27;45191;-61
2022/06/23 05:42:12;;;;;;;;;6.00;2.67;;;;;20.58;70.72;100430.44;5070958;27;46133;-64
2022/06/23 05:44:47;;;;;;;;;3.00;2.67;;;;;20.62;69.58;100436.38;5075205;27;45436;-65
2022/06/23 05:47:14;;;;;;;;;5.33;5.00;;;;;20.69;69.46;100428.47;5074771;27;45399;-68
2022/06/23 05:49:44;;;;;;;;;5.00;5.00;;;;;20.72;69.00;100430.91;5074253;27;45541;-60
2022/06/23 05:52:15;;;;;;;;;4.67;4.67;;;;;20.73;68.32;100425.34;5073971;27;46243;-63
2022/06/23 05:54:46;;;;;;;;;6.00;6.00;;;;;20.66;67.77;100417.97;5076331;27;45447;-63
2022/06/23 05:57:26;;;;;;;;;5.67;5.67;;;;;20.62;67.57;100422.84;5074079;27;45477;-63
2022/06/23 05:59:56;;;;;;;;;7.00;4.33;;;;;20.61;67.19;100427.41;5075969;27;45479;-64
2022/06/23 06:02:21;;;;;;;;;7.00;5.67;;;;;20.60;67.84;100431.13;5076486;28;45349;-64
2022/06/23 06:04:53;;;;;;;;;7.00;6.00;;;;;20.56;67.45;100420.75;5073930;28;46219;-65
2022/06/23 06:07:23;;;;;;;;;6.00;6.00;;;;;20.57;67.45;100408.94;5076300;27;45434;-68
2022/06/23 06:09:50;;;;;;;;;8.67;6.00;;;;;20.53;67.64;100408.41;5073611;27;45432;-67
2022/06/23 06:12:26;;;;;;;;;6.00;6.00;;;;;20.55;67.33;100411.81;5073323;27;46319;-63
2022/06/23 06:14:58;;;;;;;;;8.67;7.00;;;;;20.61;67.15;100418.47;5075765;27;45257;-61
2022/06/23 06:17:28;;;;;;;;;7.67;5.33;;;;;20.59;67.10;100418.63;5061083;27;46963;-64
2022/06/23 06:19:57;;;;;;;;;7.00;7.00;;;;;20.59;66.90;100409.66;5074606;27;45367;-65
2022/06/23 06:22:30;;;;;;;;;8.00;6.67;;;;;20.63;66.72;100413.75;5073844;28;45566;-62
2022/06/23 06:24:58;;;;;;;;;7.67;7.00;;;;;20.66;67.10;100405.31;5072981;28;45417;-64
2022/06/23 06:27:24;;;;;;;;;5.00;5.00;;;;;20.74;66.91;100410.81;5072098;28;45370;-66
2022/06/23 06:29:51;;;;;;;;;6.33;6.33;;;;;20.82;66.99;100412.72;5075729;27;45667;-63
2022/06/23 06:32:34;;;;;;;;;9.00;7.00;;;;;20.92;66.64;100417.03;5061542;27;46328;-64
2022/06/23 06:35:02;;;;;;;;;8.00;8.00;;;;;20.95;66.26;100423.97;5075540;27;45405;-63
2022/06/23 06:37:31;;;;;;;;;8.33;7.00;;;;;21.03;66.34;100409.69;5073859;27;45512;-60
2022/06/23 06:40:00;;;;;;;;;8.67;7.00;;;;;21.04;65.80;100408.66;5074939;27;45626;-62
2022/06/23 06:42:32;;;;;;;;;9.00;9.00;;;;;21.09;65.75;100404.47;5074782;27;45346;-65
2022/06/23 06:45:02;;;;;;;;;7.67;6.00;;;;;21.03;65.65;100407.81;5075230;27;45886;-64
2022/06/23 06:47:32;;;;;;;;;7.33;6.67;;;;;21.03;65.49;100409.69;5073189;28;45420;-63
2022/06/23 06:50:02;;;;;;;;;9.67;6.00;;;;;21.11;65.33;100413.31;5075195;28;45513;-68
2022/06/23 06:52:29;;;;;;;;;6.67;6.67;;;;;21.09;65.25;100414.44;5073493;27;46144;-67
2022/06/23 06:55:04;;;;;;;;;7.00;7.00;;;;;21.11;65.54;100413.31;5078137;27;45315;-66
2022/06/23 06:57:47;;;;;;;;;10.67;8.00;;;;;21.20;65.27;100416.91;5077808;27;45350;-67
2022/06/23 07:00:21;;;;;;;;;7.33;6.67;;;;;21.21;65.11;100426.69;5079137;27;45529;-68
2022/06/23 07:03:06;;;;;;;;;9.33;8.00;;;;;21.17;64.93;100428.88;5078809;27;46113;-71
2022/06/23 07:05:49;;;;;;;;;5.33;5.00;;;;;21.20;65.09;100422.31;5077263;28;45400;-66
2022/06/23 07:08:29;;;;;;;;;8.67;8.67;;;;;21.29;65.04;100432.22;5078200;27;45463;-69
2022/06/23 07:11:09;;;;;;;;;10.67;9.00;;;;;21.31;64.30;100432.91;5079204;27;45546;-66
2022/06/23 07:13:55;;;;;;;;;6.33;6.33;;;;;21.26;64.80;100424.44;5078563;27;45791;-63
2022/06/23 07:16:32;;;;;;;;;7.00;7.00;;;;;21.28;64.65;100413.44;5078520;27;45567;-65
2022/06/23 07:19:23;;;;;;;;;10.00;7.00;;;;;21.28;64.68;100413.44;5078742;27;45363;-65
2022/06/23 07:21:55;;;;;;;;;11.33;9.00;;;;;21.24;64.66;100410.19;5078424;27;45421;-69
2022/06/23 07:24:40;;;;;;;;;10.67;8.00;;;;;21.27;64.53;100436.09;5078144;27;45416;-63
2022/06/23 07:27:31;;;;;;;;;13.33;9.00;;;;;21.23;64.71;100437.38;5078288;28;45208;-63
2022/06/23 07:30:13;;;;;;;;;6.00;6.00;;;;;21.24;64.22;100444.50;5079030;27;45439;-64
2022/06/23 07:32:50;;;;;;;;;9.00;8.00;;;;;21.17;63.37;100437.00;5078834;28;45323;-64
2022/06/23 07:35:38;;;;;;;;;7.33;6.00;;;;;21.14;63.14;100442.72;5093995;27;46096;-64
2022/06/23 07:38:19;;;;;;;;;7.00;7.00;;;;;21.15;62.80;100444.44;5078347;28;45303;-62
2022/06/23 07:41:07;;;;;;;;;6.33;6.33;;;;;21.15;63.18;100449.84;5078762;27;45374;-68
2022/06/23 07:43:41;;;;;;;;;9.00;7.00;;;;;21.18;63.16;100446.81;5078553;27;45263;-64
2022/06/23 07:46:06;;;;;;;;;7.00;7.00;;;;;21.22;63.03;100444.63;5078128;27;45901;-64
2022/06/23 07:48:34;;;;;;;;;7.33;6.00;;;;;21.19;62.91;100447.66;5078386;27;45480;-66
2022/06/23 07:51:05;;;;;;;;;6.33;5.00;;;;;21.17;63.00;100455.94;5078446;27;45346;-64
2022/06/23 07:53:40;;;;;;;;;8.00;8.00;;;;;21.13;63.20;100443.75;5078600;27;45263;-69
2022/06/23 07:56:10;;;;;;;;;7.00;7.00;;;;;21.26;62.76;100447.91;5078078;27;46406;-70
2022/06/23 07:58:39;;;;;;;;;10.00;8.67;;;;;21.31;63.07;100440.16;5077874;27;45338;-68
2022/06/23 08:01:15;;;;;;;;;6.67;6.67;;;;;21.35;62.31;100436.13;5078234;27;45350;-66
2022/06/23 08:03:52;;;;;;;;;6.33;6.00;;;;;21.43;61.85;100433.47;5078280;27;45427;-68
2022/06/23 08:06:21;;;;;;;;;8.00;7.00;;;;;21.40;61.73;100426.53;5077664;27;46082;-64
2022/06/23 08:08:51;;;;;;;;;9.00;8.00;;;;;21.41;61.28;100436.34;5077626;27;45337;-66
2022/06/23 08:14:22;;;;;;;;;6.33;6.00;;;;;21.58;61.48;100437.28;5077112;28;45384;-68
2022/06/23 08:16:51;;;;;;;;;8.33;7.00;;;;;21.63;60.83;100434.13;5077842;28;46215;-67
2022/06/23 08:19:37;;;;;;;;;8.33;8.33;;;;;21.74;60.32;100439.22;5076181;28;45496;-66
2022/06/23 08:22:29;;;;;;;;;6.00;6.00;;;;;21.82;59.91;100447.41;5091273;27;45392;-64
2022/06/23 08:24:58;;;;;;;;;7.00;7.00;;;;;21.86;59.83;100426.25;5077786;27;45468;-64
2022/06/23 08:27:28;;;;;;;;;7.33;5.67;;;;;22.10;58.99;100439.94;5077574;27;46063;-64
2022/06/23 08:30:09;;;;;;;;;13.00;13.00;;;;;22.56;58.94;100426.84;5093027;27;45400;-65
2022/06/23 08:32:40;;;;;;;;;13.33;10.00;;;;;22.98;57.46;100431.28;5077640;27;45349;-67
2022/06/23 08:35:14;;;;;;;;;7.00;7.00;;;;;23.39;55.58;100438.38;5077767;28;45295;-67
2022/06/23 08:37:57;;;;;;;;;7.00;7.00;;;;;24.02;55.82;100432.09;5077327;28;45384;-64
2022/06/23 08:40:44;;;;;;;;;6.00;4.25;;;;;24.53;54.93;100440.69;5077131;27;45396;-65
2022/06/23 08:43:17;;;;;;;;;7.75;7.50;;;;;24.99;53.91;100436.06;5077503;27;45298;-66
2022/06/23 08:45:54;;;;;;;;;6.00;6.00;;;;;25.45;52.65;100430.56;5077263;27;45310;-66
2022/06/23 08:48:39;;;;;;;;;5.00;5.00;;;;;25.72;52.37;100440.00;5076957;27;45416;-64
2022/06/23 08:51:22;;;;;;;;;7.60;6.60;;;;;26.13;51.38;100431.31;5077303;27;45369;-64
2022/06/23 08:54:00;;;;;;;;;9.25;6.00;;;;;26.36;50.90;100445.69;5077310;27;45394;-69
2022/06/23 08:56:48;;;;;;;;;9.00;8.00;;;;;26.48;48.88;100437.00;5076674;27;45559;-69
2022/06/23 08:59:29;;;;;;;;;6.00;4.80;;;;;26.87;48.61;100437.41;5076679;27;46047;-69
2022/06/23 09:02:39;;;;;;;;;6.00;6.00;;;;;27.02;49.01;100431.91;5076215;27;45390;-65
2022/06/23 09:05:10;;;;;;;;;9.40;7.40;;;;;27.27;46.61;100435.03;5034537;28;45392;-66
2022/06/23 09:08:02;;;;;;;;;6.00;5.50;;;;;27.67;47.30;100427.16;5034536;28;45321;-64
2022/06/23 09:10:39;;;;;;;;;6.40;6.40;;;;;28.04;46.56;100417.66;5039483;27;45724;-66
2022/06/23 09:13:26;;;;;;;;;9.80;7.80;;;;;28.15;45.31;100417.09;5077084;27;45371;-65
2022/06/23 09:16:05;;;;;;;;;6.80;6.80;;;;;28.27;45.44;100414.63;5076686;27;45448;-65
2022/06/23 09:18:55;;;;;;;;;6.00;6.00;;;;;28.60;43.85;100418.28;5076887;27;45332;-65
2022/06/23 09:21:23;;;;;;;;;7.40;6.00;;;;;29.03;44.67;100420.66;5076741;28;45794;-65
2022/06/23 09:24:18;;;;;;;;;6.00;6.00;;;;;29.25;44.15;100421.31;5076415;27;45387;-63
2022/06/23 09:26:53;;;;;;;;;6.40;6.40;;;;;29.48;43.31;100421.72;5075449;28;45367;-65
2022/06/23 09:29:37;;;;;;;;;5.40;4.60;;;;;29.92;44.12;100422.88;5076575;27;45505;-70
2022/06/23 09:32:12;;;;;;;;;6.20;6.20;;;;;30.24;41.39;100426.56;5076599;28;46301;-64
2022/06/23 09:35:15;;;;;;;;;7.00;5.80;;;;;30.53;39.94;100420.50;5076137;27;45352;-64
2022/06/23 09:38:16;;;;;;;;;5.20;5.20;;;;;30.78;40.38;100414.25;5076542;27;45428;-66
2022/06/23 09:40:49;;;;;;;;;5.80;5.80;;;;;31.06;39.94;100417.41;5075507;27;45316;-69
2022/06/23 09:43:39;;;;;;;;;7.40;6.60;;;;;31.15;38.94;100395.16;5076447;27;45647;-65
2022/06/23 09:46:38;;;;;;;;;6.40;6.40;;;;;31.58;39.18;100404.25;5076440;27;45230;-68
2022/06/23 09:49:40;;;;;;;;;7.20;7.20;;;;;31.83;36.59;100395.97;5076475;27;45522;-65
2022/06/23 09:52:31;;;;;;;;;6.40;6.40;;;;;32.02;37.05;100407.78;5077084;27;45605;-64
2022/06/23 09:55:29;;;;;;;;;6.20;6.20;;;;;32.19;37.77;100406.09;5076513;27;46497;-63
2022/06/23 09:58:07;;;;;;;;;7.40;5.80;;;;;32.50;37.40;100412.44;5075950;27;45234;-64
2022/06/23 10:01:07;;;;;;;;;6.40;5.40;;;;;32.86;35.78;100411.50;5076152;28;45255;-66
2022/06/23 10:03:35;;;;;;;;;8.80;6.80;;;;;33.03;35.68;100414.41;5076302;28;45363;-67
2022/06/23 10:06:04;;;;;;;;;5.20;5.20;;;;;32.72;33.07;100410.84;5076033;27;45227;-66
2022/06/23 10:08:46;;;;;;;;;5.20;4.60;;;;;32.72;35.78;100399.84;5074709;28;45482;-61
2022/06/23 10:11:26;;;;;;;;;11.40;9.20;;;;;32.87;37.55;100401.34;5075187;27;45430;-59
2022/06/23 10:14:09;;;;;;;;;6.40;6.40;;;;;32.71;37.13;100400.91;5074312;27;45450;-60
2022/06/23 10:17:00;;;;;;;;;6.40;5.20;;;;;32.93;34.99;100400.38;5061792;28;46342;-59
2022/06/23 10:19:39;;;;;;;;;6.60;5.60;;;;;33.13;35.26;100409.16;5075492;27;45318;-59
2022/06/23 10:22:31;;;;;;;;;6.00;5.40;;;;;33.21;34.84;100405.22;5074270;27;45864;-60
2022/06/23 10:25:38;;;;;;;;;6.40;6.40;;;;;33.13;34.64;100400.88;5074403;27;45553;-60
2022/06/23 10:28:31;;;;;;;;;5.20;5.20;;;;;32.67;35.47;100407.94;5075669;27;46972;-61
2022/06/23 10:30:59;;;;;;;;;9.40;6.60;;;;;32.47;35.89;100404.66;5076245;27;45481;-60
2022/06/23 10:33:37;;;;;;;;;10.00;7.00;;;;;32.32;35.65;100404.25;5079631;27;45479;-65
2022/06/23 10:36:27;;;;;;;;;7.20;7.00;;;;;32.08;35.45;100404.09;5079482;27;45423;-64
2022/06/23 10:39:15;;;;;;;;;4.60;3.80;;;;;31.71;35.66;100397.75;5079154;28;46414;-69
2022/06/23 10:41:50;;;;;;;;;6.40;6.40;;;;;31.18;36.80;100400.19;5079560;27;45626;-64
2022/06/23 10:44:38;;;;;;;;;7.40;7.40;;;;;30.78;36.90;100393.13;5112249;27;45840;-66
2022/06/23 10:47:22;;;;;;;;;6.00;6.00;;;;;30.43;37.78;100387.19;5079422;27;45279;-63
2022/06/23 10:50:06;;;;;;;;;4.80;4.80;;;;;30.00;37.46;100380.66;5078879;27;45439;-65
2022/06/23 10:53:05;;;;;;;;;3.40;3.00;;;;;29.70;38.13;100394.91;5111302;27;45646;-65
2022/06/23 10:55:55;;;;;;;;;6.40;6.40;;;;;29.55;37.67;100389.66;5078700;27;45351;-63
2022/06/23 10:58:51;;;;;;;;;7.00;7.00;;;;;29.24;38.98;100393.06;5079633;28;45314;-66
2022/06/23 11:01:44;;;;;;;;;5.60;5.60;;;;;29.27;38.41;100386.31;5079277;27;45516;-62
2022/06/23 11:04:15;;;;;;;;;5.60;4.40;;;;;29.10;38.73;100388.66;5078140;27;45394;-65
2022/06/23 11:06:59;;;;;;;;;6.20;6.20;;;;;29.00;39.51;100390.97;5077794;28;45427;-64
2022/06/23 11:09:39;;;;;;;;;5.40;5.40;;;;;28.89;40.11;100389.72;5078709;28;45329;-63
2022/06/23 11:12:08;;;;;;;;;5.00;5.00;;;;;28.82;40.32;100386.13;5077299;28;47744;-63
2022/06/23 11:14:50;;;;;;;;;7.60;6.40;;;;;28.90;38.94;100385.06;5078227;27;45831;-63
2022/06/23 11:17:27;;;;;;;;;11.00;5.00;;;;;28.81;39.39;100380.84;5078927;27;45550;-66
2022/06/23 11:20:16;;;;;;;;;6.00;6.00;;;;;28.59;39.05;100382.94;5078893;27;45389;-68
2022/06/23 11:23:03;;;;;;;;;8.40;6.80;;;;;28.44;39.68;100377.66;5058102;28;45329;-66
2022/06/23 11:25:40;;;;;;;;;6.80;5.40;;;;;28.31;40.08;100364.78;5058258;28;45530;-65
2022/06/23 11:28:34;;;;;;;;;6.60;5.20;;;;;28.30;40.21;100362.25;5091047;27;45437;-63
2022/06/23 11:31:14;;;;;;;;;4.20;3.00;;;;;28.44;39.90;100361.22;5091134;27;45423;-65
2022/06/23 11:33:54;;;;;;;;;5.80;5.00;;;;;28.21;39.35;100356.09;5058409;27;46641;-65
2022/06/23 11:36:47;;;;;;;;;4.60;4.60;;;;;28.25;40.88;100370.19;5057987;28;45485;-66
2022/06/23 11:39:30;;;;;;;;;6.40;4.40;;;;;28.32;39.56;100354.69;5057194;28;45425;-65
2022/06/23 11:42:11;;;;;;;;;4.80;4.80;;;;;28.31;38.86;100353.84;5058692;27;45266;-65
2022/06/23 11:45:03;;;;;;;;;5.00;5.00;;;;;28.25;38.31;100353.78;5057798;28;45505;-66
2022/06/23 11:48:01;;;;;;;;;5.40;5.40;;;;;28.28;39.37;100356.16;5058164;28;45446;-64
2022/06/23 11:50:45;;;;;;;;;5.60;5.60;;;;;28.38;38.92;100345.63;5058149;28;45402;-69
2022/06/23 11:53:27;;;;;;;;;5.20;4.80;;;;;28.35;39.14;100338.69;5058455;28;45305;-63
2022/06/23 11:55:58;;;;;;;;;8.40;7.00;;;;;28.47;39.03;100352.59;5057590;28;46072;-67
2022/06/23 11:58:32;;;;;;;;;7.20;7.20;;;;;28.62;38.64;100353.25;5057809;28;45518;-68
2022/06/23 12:01:11;;;;;;;;;7.20;5.60;;;;;28.55;38.65;100346.94;5057873;28;45510;-64
2022/06/23 12:04:07;;;;;;;;;5.40;5.40;;;;;28.43;38.84;100340.41;5057780;27;45377;-64
2022/06/23 12:06:59;;;;;;;;;6.00;6.00;;;;;28.53;38.99;100335.38;5057344;28;46442;-66
2022/06/23 12:10:01;;;;;;;;;5.40;5.40;;;;;28.63;38.54;100334.94;5057553;28;45322;-62
2022/06/23 12:12:29;;;;;;;;;6.00;6.00;;;;;28.62;37.81;100327.78;5057502;28;45370;-63
2022/06/23 12:14:55;;;;;;;;;5.00;5.00;;;;;28.60;37.44;100318.94;5057794;28;45297;-69
2022/06/23 12:17:29;;;;;;;;;5.00;5.00;;;;;28.69;38.29;100307.59;5057335;28;45927;-64
2022/06/23 12:20:25;;;;;;;;;6.20;6.20;;;;;28.78;37.43;100309.06;5057282;28;45255;-63
2022/06/23 12:23:00;;;;;;;;;4.20;4.20;;;;;28.91;37.21;100301.91;5090030;27;45281;-65